VILK/LKO METAR and TAF weather

Enter ICAO airport designator
Station Type Date Time Source
VILK METAR 2022/01/26 13:00 UTC NOAA

VILK 261300Z 25003KT 2000 BR SCT018 SCT025 12/11 Q1015 NOSIG


Station Type Date Time Source
VILK Decoded METAR 2022/01/26 13:00 UTC NOAA

Lucknow / Amausi, India (VILK) 26-45N 080-53E 128M
Jan 26, 2022 - 08:00 AM EST / 2022.01.26 1300 UTC
Wind: from the WSW (250 degrees) at 3 MPH (3 KT):0
Visibility: 1 mile(s):0
Sky conditions: partly cloudy
Weather: mist
Temperature: 53 F (12 C)
Dew Point: 51 F (11 C)
Relative Humidity: 93%
Pressure (altimeter): 29.97 in. Hg (1015 hPa)
ob: VILK 261300Z 25003KT 2000 BR SCT018 SCT025 12/11 Q1015 NOSIG
cycle: 13

Station Type Date Time Source
VILK TAF 2022/01/26 12:18 UTC NOAA

TAF VILK 261100Z 2612/2718 VRB02KT 1500 BR SCT020 BKN100
BECMG 2614/2616 1000 MIFG
BECMG 2700/2702 0300 FG VV///
BECMG 2704/2706 27005KT 0800 FG VV///
BECMG 2707/2709 1500 BR SCT020 BKN100

Example: see airport list